Terminal Aerodrome Forecast
Issued by NWS

Home | Current Version | Previous Version | Text Only | Print | Product List | Glossary On
Versions: 1 2 3 4 5 6 7 8 9 10 11 12 13 14 15 16 17 18 19 20
623
FTUS42 KMLB 231121
TAFSUA
TAF
KSUA 231121Z 2312/2412 08009KT P6SM VCSH SCT020 BKN040 BKN250
      TEMPO 2312/2315 3SM SHRA SCT015 BKN025
     FM231500 07010KT P6SM VCSH SCT025 BKN050 BKN250
     FM231800 06011KT P6SM VCTS SCT030CB BKN060 BKN250
     FM232200 05009KT P6SM VCSH SCT030 BKN090 BKN250
     FM240600 05005KT P6SM VCSH SCT025 BKN060=

USA.gov is the U.S. government's official web portal to all federal, state and local government web resources and services.